sensor_id;sensor_type;location;lat;lon;timestamp;temperature;humidity
5134;DHT22;2585;48.696;10.066;2024-01-25T00:00:53;6.80;1.00
5134;DHT22;2585;48.696;10.066;2024-01-25T00:03:20;6.80;1.00
5134;DHT22;2585;48.696;10.066;2024-01-25T00:05:47;6.70;1.00
5134;DHT22;2585;48.696;10.066;2024-01-25T00:08:15;6.70;1.00
5134;DHT22;2585;48.696;10.066;2024-01-25T00:10:42;6.70;1.00
5134;DHT22;2585;48.696;10.066;2024-01-25T00:13:09;6.80;1.00
5134;DHT22;2585;48.696;10.066;2024-01-25T00:15:36;6.70;1.00
5134;DHT22;2585;48.696;10.066;2024-01-25T00:18:03;6.80;1.00
5134;DHT22;2585;48.696;10.066;2024-01-25T00:20:30;6.80;1.00
5134;DHT22;2585;48.696;10.066;2024-01-25T00:22:57;6.90;1.00
5134;DHT22;2585;48.696;10.066;2024-01-25T00:25:24;6.90;90.00
5134;DHT22;2585;48.696;10.066;2024-01-25T00:27:51;6.80;90.00
5134;DHT22;2585;48.696;10.066;2024-01-25T00:30:18;6.80;91.30
5134;DHT22;2585;48.696;10.066;2024-01-25T00:32:45;6.80;1.00
5134;DHT22;2585;48.696;10.066;2024-01-25T00:35:12;6.80;1.00
5134;DHT22;2585;48.696;10.066;2024-01-25T00:37:41;6.90;1.00
5134;DHT22;2585;48.696;10.066;2024-01-25T00:40:08;6.90;1.00
5134;DHT22;2585;48.696;10.066;2024-01-25T00:42:41;6.80;1.00
5134;DHT22;2585;48.696;10.066;2024-01-25T00:45:09;6.80;1.00
5134;DHT22;2585;48.696;10.066;2024-01-25T00:47:36;6.90;1.00
5134;DHT22;2585;48.696;10.066;2024-01-25T00:50:04;6.90;1.00
5134;DHT22;2585;48.696;10.066;2024-01-25T00:52:32;6.90;1.00
5134;DHT22;2585;48.696;10.066;2024-01-25T00:54:59;6.80;1.00
5134;DHT22;2585;48.696;10.066;2024-01-25T00:57:26;6.80;1.00
5134;DHT22;2585;48.696;10.066;2024-01-25T00:59:53;6.90;1.00
5134;DHT22;2585;48.696;10.066;2024-01-25T01:02:21;6.90;1.00
5134;DHT22;2585;48.696;10.066;2024-01-25T01:04:49;6.90;1.00
5134;DHT22;2585;48.696;10.066;2024-01-25T01:07:16;6.90;1.00
5134;DHT22;2585;48.696;10.066;2024-01-25T01:09:44;6.90;1.00
5134;DHT22;2585;48.696;10.066;2024-01-25T01:12:10;6.90;1.00
5134;DHT22;2585;48.696;10.066;2024-01-25T01:14:37;7.00;1.00
5134;DHT22;2585;48.696;10.066;2024-01-25T01:17:04;7.00;1.00
5134;DHT22;2585;48.696;10.066;2024-01-25T01:19:32;7.00;1.00
5134;DHT22;2585;48.696;10.066;2024-01-25T01:21:59;7.00;1.00
5134;DHT22;2585;48.696;10.066;2024-01-25T01:24:26;7.00;1.00
5134;DHT22;2585;48.696;10.066;2024-01-25T01:26:53;7.00;1.00
5134;DHT22;2585;48.696;10.066;2024-01-25T01:29:19;7.00;1.00
5134;DHT22;2585;48.696;10.066;2024-01-25T01:31:46;7.00;1.00
5134;DHT22;2585;48.696;10.066;2024-01-25T01:34:13;7.00;1.00
5134;DHT22;2585;48.696;10.066;2024-01-25T01:36:41;7.00;1.00
5134;DHT22;2585;48.696;10.066;2024-01-25T01:39:08;7.00;1.00
5134;DHT22;2585;48.696;10.066;2024-01-25T01:41:35;7.00;1.00
5134;DHT22;2585;48.696;10.066;2024-01-25T01:44:02;7.10;1.00
5134;DHT22;2585;48.696;10.066;2024-01-25T01:49:00;7.10;1.00
5134;DHT22;2585;48.696;10.066;2024-01-25T01:51:29;7.10;1.00
5134;DHT22;2585;48.696;10.066;2024-01-25T01:53:57;7.10;1.00
5134;DHT22;2585;48.696;10.066;2024-01-25T01:56:27;7.10;1.00
5134;DHT22;2585;48.696;10.066;2024-01-25T01:59:05;7.20;1.00
5134;DHT22;2585;48.696;10.066;2024-01-25T02:01:33;7.20;1.00
5134;DHT22;2585;48.696;10.066;2024-01-25T02:04:00;7.20;1.00
5134;DHT22;2585;48.696;10.066;2024-01-25T02:06:27;7.20;1.00
5134;DHT22;2585;48.696;10.066;2024-01-25T02:08:54;7.20;1.00
5134;DHT22;2585;48.696;10.066;2024-01-25T02:11:28;7.20;91.50
5134;DHT22;2585;48.696;10.066;2024-01-25T02:13:56;7.20;89.10
5134;DHT22;2585;48.696;10.066;2024-01-25T02:16:23;7.20;90.90
5134;DHT22;2585;48.696;10.066;2024-01-25T02:18:50;7.30;75.10
5134;DHT22;2585;48.696;10.066;2024-01-25T02:21:17;7.30;72.10
5134;DHT22;2585;48.696;10.066;2024-01-25T02:23:45;7.40;65.10
5134;DHT22;2585;48.696;10.066;2024-01-25T02:26:12;7.30;71.20
5134;DHT22;2585;48.696;10.066;2024-01-25T02:28:38;7.30;72.00
5134;DHT22;2585;48.696;10.066;2024-01-25T02:31:06;7.30;77.90
5134;DHT22;2585;48.696;10.066;2024-01-25T02:33:32;7.30;70.40
5134;DHT22;2585;48.696;10.066;2024-01-25T02:35:59;7.30;65.70
5134;DHT22;2585;48.696;10.066;2024-01-25T02:38:26;7.20;70.20
5134;DHT22;2585;48.696;10.066;2024-01-25T02:40:53;7.30;71.90
5134;DHT22;2585;48.696;10.066;2024-01-25T02:43:20;7.30;68.80
5134;DHT22;2585;48.696;10.066;2024-01-25T02:45:48;7.20;73.40
5134;DHT22;2585;48.696;10.066;2024-01-25T02:48:15;7.10;74.90
5134;DHT22;2585;48.696;10.066;2024-01-25T02:50:42;7.20;76.40
5134;DHT22;2585;48.696;10.066;2024-01-25T02:53:10;7.10;76.30
5134;DHT22;2585;48.696;10.066;2024-01-25T02:55:37;7.10;82.30
5134;DHT22;2585;48.696;10.066;2024-01-25T02:58:04;7.20;77.40
5134;DHT22;2585;48.696;10.066;2024-01-25T03:00:31;7.20;64.70
5134;DHT22;2585;48.696;10.066;2024-01-25T03:02:58;7.20;62.20
5134;DHT22;2585;48.696;10.066;2024-01-25T03:05:25;7.20;50.50
5134;DHT22;2585;48.696;10.066;2024-01-25T03:07:52;7.20;48.60
5134;DHT22;2585;48.696;10.066;2024-01-25T03:10:19;7.20;20.90
5134;DHT22;2585;48.696;10.066;2024-01-25T03:12:47;7.20;1.10
5134;DHT22;2585;48.696;10.066;2024-01-25T03:15:13;7.20;1.00
5134;DHT22;2585;48.696;10.066;2024-01-25T03:17:41;7.20;14.10
5134;DHT22;2585;48.696;10.066;2024-01-25T03:20:09;7.10;41.30
5134;DHT22;2585;48.696;10.066;2024-01-25T03:22:36;7.10;50.00
5134;DHT22;2585;48.696;10.066;2024-01-25T03:25:03;7.10;54.20
5134;DHT22;2585;48.696;10.066;2024-01-25T03:27:30;7.10;34.70
5134;DHT22;2585;48.696;10.066;2024-01-25T03:29:57;7.10;5.90
5134;DHT22;2585;48.696;10.066;2024-01-25T03:32:25;7.00;1.00
5134;DHT22;2585;48.696;10.066;2024-01-25T03:34:52;7.00;1.00
5134;DHT22;2585;48.696;10.066;2024-01-25T03:37:19;7.00;1.00
5134;DHT22;2585;48.696;10.066;2024-01-25T03:39:46;6.90;1.00
5134;DHT22;2585;48.696;10.066;2024-01-25T03:42:13;6.90;1.00
5134;DHT22;2585;48.696;10.066;2024-01-25T03:44:40;6.90;11.20
5134;DHT22;2585;48.696;10.066;2024-01-25T03:47:08;6.90;40.00
5134;DHT22;2585;48.696;10.066;2024-01-25T03:49:35;6.90;61.00
5134;DHT22;2585;48.696;10.066;2024-01-25T03:52:04;6.90;67.60
5134;DHT22;2585;48.696;10.066;2024-01-25T03:54:31;6.90;68.10
5134;DHT22;2585;48.696;10.066;2024-01-25T03:56:58;6.80;74.90
5134;DHT22;2585;48.696;10.066;2024-01-25T03:59:25;6.90;71.70
5134;DHT22;2585;48.696;10.066;2024-01-25T04:01:51;6.90;46.70
5134;DHT22;2585;48.696;10.066;2024-01-25T04:04:18;6.90;35.20
5134;DHT22;2585;48.696;10.066;2024-01-25T04:06:46;6.90;37.60
5134;DHT22;2585;48.696;10.066;2024-01-25T04:09:14;6.90;21.70
5134;DHT22;2585;48.696;10.066;2024-01-25T04:11:42;6.90;26.20
5134;DHT22;2585;48.696;10.066;2024-01-25T04:14:10;6.80;47.10
5134;DHT22;2585;48.696;10.066;2024-01-25T04:16:36;6.70;57.10
5134;DHT22;2585;48.696;10.066;2024-01-25T04:19:03;6.80;55.60
5134;DHT22;2585;48.696;10.066;2024-01-25T04:21:30;6.80;39.10
5134;DHT22;2585;48.696;10.066;2024-01-25T04:23:57;6.80;1.00
5134;DHT22;2585;48.696;10.066;2024-01-25T04:26:24;6.80;1.00
5134;DHT22;2585;48.696;10.066;2024-01-25T04:28:51;6.80;1.00
5134;DHT22;2585;48.696;10.066;2024-01-25T04:31:18;6.80;1.00
5134;DHT22;2585;48.696;10.066;2024-01-25T04:33:46;6.80;1.00
5134;DHT22;2585;48.696;10.066;2024-01-25T04:36:15;6.70;1.00
5134;DHT22;2585;48.696;10.066;2024-01-25T04:38:42;6.70;1.00
5134;DHT22;2585;48.696;10.066;2024-01-25T04:41:09;6.70;9.10
5134;DHT22;2585;48.696;10.066;2024-01-25T04:43:36;6.60;7.90
5134;DHT22;2585;48.696;10.066;2024-01-25T04:46:04;6.60;7.90
5134;DHT22;2585;48.696;10.066;2024-01-25T04:48:31;6.60;29.90
5134;DHT22;2585;48.696;10.066;2024-01-25T04:50:59;6.60;19.80
5134;DHT22;2585;48.696;10.066;2024-01-25T04:53:26;6.60;3.40
5134;DHT22;2585;48.696;10.066;2024-01-25T04:55:56;6.60;1.00
5134;DHT22;2585;48.696;10.066;2024-01-25T04:58:23;6.50;13.70
5134;DHT22;2585;48.696;10.066;2024-01-25T05:00:50;6.50;24.60
5134;DHT22;2585;48.696;10.066;2024-01-25T05:03:19;6.50;29.10
5134;DHT22;2585;48.696;10.066;2024-01-25T05:05:47;6.40;38.30
5134;DHT22;2585;48.696;10.066;2024-01-25T05:08:14;6.40;44.40
5134;DHT22;2585;48.696;10.066;2024-01-25T05:10:41;6.30;58.00
5134;DHT22;2585;48.696;10.066;2024-01-25T05:13:09;6.30;51.20
5134;DHT22;2585;48.696;10.066;2024-01-25T05:15:36;6.30;50.80
5134;DHT22;2585;48.696;10.066;2024-01-25T05:18:03;6.20;52.30
5134;DHT22;2585;48.696;10.066;2024-01-25T05:20:31;6.20;60.50
5134;DHT22;2585;48.696;10.066;2024-01-25T05:23:01;6.20;61.40
5134;DHT22;2585;48.696;10.066;2024-01-25T05:25:28;6.10;75.20
5134;DHT22;2585;48.696;10.066;2024-01-25T05:27:56;6.00;80.00
5134;DHT22;2585;48.696;10.066;2024-01-25T05:30:27;6.00;81.50
5134;DHT22;2585;48.696;10.066;2024-01-25T05:32:53;6.00;85.00
5134;DHT22;2585;48.696;10.066;2024-01-25T05:35:22;6.00;83.80
5134;DHT22;2585;48.696;10.066;2024-01-25T05:37:50;6.00;90.10
5134;DHT22;2585;48.696;10.066;2024-01-25T05:40:17;5.90;92.20
5134;DHT22;2585;48.696;10.066;2024-01-25T05:42:44;5.90;92.10
5134;DHT22;2585;48.696;10.066;2024-01-25T05:45:12;6.00;91.40
5134;DHT22;2585;48.696;10.066;2024-01-25T05:47:38;5.90;91.10
5134;DHT22;2585;48.696;10.066;2024-01-25T05:50:06;5.90;93.50
5134;DHT22;2585;48.696;10.066;2024-01-25T05:52:33;6.00;90.90
5134;DHT22;2585;48.696;10.066;2024-01-25T05:55:07;5.90;89.70
5134;DHT22;2585;48.696;10.066;2024-01-25T05:57:37;5.90;92.90
5134;DHT22;2585;48.696;10.066;2024-01-25T06:00:05;5.80;93.70
5134;DHT22;2585;48.696;10.066;2024-01-25T06:02:32;5.90;92.80
5134;DHT22;2585;48.696;10.066;2024-01-25T06:04:59;5.80;93.00
5134;DHT22;2585;48.696;10.066;2024-01-25T06:07:26;5.80;92.90
5134;DHT22;2585;48.696;10.066;2024-01-25T06:09:54;5.80;93.20
5134;DHT22;2585;48.696;10.066;2024-01-25T06:12:21;5.80;94.60
5134;DHT22;2585;48.696;10.066;2024-01-25T06:14:48;5.80;94.40
5134;DHT22;2585;48.696;10.066;2024-01-25T06:17:15;5.70;94.70
5134;DHT22;2585;48.696;10.066;2024-01-25T06:19:41;5.70;1.00
5134;DHT22;2585;48.696;10.066;2024-01-25T06:22:08;5.70;1.00
5134;DHT22;2585;48.696;10.066;2024-01-25T06:24:35;5.70;1.00
5134;DHT22;2585;48.696;10.066;2024-01-25T06:27:02;5.70;1.00
5134;DHT22;2585;48.696;10.066;2024-01-25T06:29:29;5.70;1.00
5134;DHT22;2585;48.696;10.066;2024-01-25T06:31:56;5.70;1.00
5134;DHT22;2585;48.696;10.066;2024-01-25T06:34:23;5.60;1.00
5134;DHT22;2585;48.696;10.066;2024-01-25T06:36:50;5.60;91.00
5134;DHT22;2585;48.696;10.066;2024-01-25T06:39:17;5.60;87.50
5134;DHT22;2585;48.696;10.066;2024-01-25T06:41:44;5.50;89.70
5134;DHT22;2585;48.696;10.066;2024-01-25T06:44:11;5.50;90.70
5134;DHT22;2585;48.696;10.066;2024-01-25T06:46:38;5.40;89.60
5134;DHT22;2585;48.696;10.066;2024-01-25T06:49:05;5.40;90.40
5134;DHT22;2585;48.696;10.066;2024-01-25T06:51:32;5.30;90.70
5134;DHT22;2585;48.696;10.066;2024-01-25T06:53:59;5.30;92.50
5134;DHT22;2585;48.696;10.066;2024-01-25T06:56:26;5.30;93.00
5134;DHT22;2585;48.696;10.066;2024-01-25T06:58:53;5.20;92.60
5134;DHT22;2585;48.696;10.066;2024-01-25T07:01:21;5.10;94.00
5134;DHT22;2585;48.696;10.066;2024-01-25T07:03:49;5.10;1.00
5134;DHT22;2585;48.696;10.066;2024-01-25T07:06:19;5.00;1.00
5134;DHT22;2585;48.696;10.066;2024-01-25T07:08:46;5.00;1.00
5134;DHT22;2585;48.696;10.066;2024-01-25T07:11:13;5.10;1.00
5134;DHT22;2585;48.696;10.066;2024-01-25T07:13:43;5.20;1.00
5134;DHT22;2585;48.696;10.066;2024-01-25T07:16:10;5.10;1.00
5134;DHT22;2585;48.696;10.066;2024-01-25T07:18:37;5.20;1.00
5134;DHT22;2585;48.696;10.066;2024-01-25T07:21:04;5.20;1.00
5134;DHT22;2585;48.696;10.066;2024-01-25T07:23:32;5.20;1.00
5134;DHT22;2585;48.696;10.066;2024-01-25T07:25:59;5.20;1.00
5134;DHT22;2585;48.696;10.066;2024-01-25T07:28:26;5.10;1.00
5134;DHT22;2585;48.696;10.066;2024-01-25T07:30:53;5.20;1.00
5134;DHT22;2585;48.696;10.066;2024-01-25T07:33:20;5.10;1.00
5134;DHT22;2585;48.696;10.066;2024-01-25T07:35:47;5.10;1.00
5134;DHT22;2585;48.696;10.066;2024-01-25T07:38:15;5.10;1.00
5134;DHT22;2585;48.696;10.066;2024-01-25T07:40:42;5.20;1.00
5134;DHT22;2585;48.696;10.066;2024-01-25T07:43:09;5.10;1.00
5134;DHT22;2585;48.696;10.066;2024-01-25T07:45:36;5.20;1.00
5134;DHT22;2585;48.696;10.066;2024-01-25T07:48:04;5.30;1.00
5134;DHT22;2585;48.696;10.066;2024-01-25T07:50:40;5.30;1.00
5134;DHT22;2585;48.696;10.066;2024-01-25T07:53:08;5.40;1.00
5134;DHT22;2585;48.696;10.066;2024-01-25T07:55:34;5.30;1.00
5134;DHT22;2585;48.696;10.066;2024-01-25T07:58:01;5.40;1.00
5134;DHT22;2585;48.696;10.066;2024-01-25T08:00:28;5.40;1.00
5134;DHT22;2585;48.696;10.066;2024-01-25T08:02:55;5.40;1.00
5134;DHT22;2585;48.696;10.066;2024-01-25T08:05:22;5.40;1.00
5134;DHT22;2585;48.696;10.066;2024-01-25T08:07:59;5.40;1.00
5134;DHT22;2585;48.696;10.066;2024-01-25T08:10:26;5.40;1.00
5134;DHT22;2585;48.696;10.066;2024-01-25T08:12:54;5.50;1.00
5134;DHT22;2585;48.696;10.066;2024-01-25T08:15:32;5.60;1.00
5134;DHT22;2585;48.696;10.066;2024-01-25T08:17:59;5.60;1.00
5134;DHT22;2585;48.696;10.066;2024-01-25T08:20:26;5.60;1.00
5134;DHT22;2585;48.696;10.066;2024-01-25T08:22:53;5.70;1.00
5134;DHT22;2585;48.696;10.066;2024-01-25T08:25:20;5.70;1.00
5134;DHT22;2585;48.696;10.066;2024-01-25T08:27:47;5.70;1.00
5134;DHT22;2585;48.696;10.066;2024-01-25T08:30:14;5.70;1.00
5134;DHT22;2585;48.696;10.066;2024-01-25T08:32:41;5.80;1.00
5134;DHT22;2585;48.696;10.066;2024-01-25T08:35:08;5.80;1.00
5134;DHT22;2585;48.696;10.066;2024-01-25T08:37:35;5.80;1.00
5134;DHT22;2585;48.696;10.066;2024-01-25T08:40:06;5.90;1.00
5134;DHT22;2585;48.696;10.066;2024-01-25T08:42:33;5.90;1.00
5134;DHT22;2585;48.696;10.066;2024-01-25T08:45:00;5.90;1.00
5134;DHT22;2585;48.696;10.066;2024-01-25T08:47:27;6.00;1.00
5134;DHT22;2585;48.696;10.066;2024-01-25T08:49:54;6.00;1.00
5134;DHT22;2585;48.696;10.066;2024-01-25T08:52:21;6.00;1.00
5134;DHT22;2585;48.696;10.066;2024-01-25T08:54:48;6.00;1.00
5134;DHT22;2585;48.696;10.066;2024-01-25T08:57:15;6.10;1.00
5134;DHT22;2585;48.696;10.066;2024-01-25T08:59:43;6.20;1.00
5134;DHT22;2585;48.696;10.066;2024-01-25T09:02:10;6.20;1.00
5134;DHT22;2585;48.696;10.066;2024-01-25T09:04:37;6.30;90.70
5134;DHT22;2585;48.696;10.066;2024-01-25T09:07:04;6.30;83.20
5134;DHT22;2585;48.696;10.066;2024-01-25T09:09:31;6.20;80.50
5134;DHT22;2585;48.696;10.066;2024-01-25T09:11:58;6.10;91.90
5134;DHT22;2585;48.696;10.066;2024-01-25T09:14:24;6.20;88.10
5134;DHT22;2585;48.696;10.066;2024-01-25T09:16:51;6.20;71.70
5134;DHT22;2585;48.696;10.066;2024-01-25T09:19:18;6.30;65.10
5134;DHT22;2585;48.696;10.066;2024-01-25T09:21:45;6.30;68.30
5134;DHT22;2585;48.696;10.066;2024-01-25T09:24:12;6.20;70.90
5134;DHT22;2585;48.696;10.066;2024-01-25T09:26:39;6.20;76.10
5134;DHT22;2585;48.696;10.066;2024-01-25T09:29:06;6.30;80.30
5134;DHT22;2585;48.696;10.066;2024-01-25T09:31:33;6.40;82.90
5134;DHT22;2585;48.696;10.066;2024-01-25T09:34:00;6.40;62.50
5134;DHT22;2585;48.696;10.066;2024-01-25T09:36:28;6.40;61.00
5134;DHT22;2585;48.696;10.066;2024-01-25T09:38:55;6.40;63.90
5134;DHT22;2585;48.696;10.066;2024-01-25T09:41:21;6.40;63.80
5134;DHT22;2585;48.696;10.066;2024-01-25T09:43:49;6.40;61.70
5134;DHT22;2585;48.696;10.066;2024-01-25T09:46:16;6.50;64.60
5134;DHT22;2585;48.696;10.066;2024-01-25T09:48:45;6.50;61.70
5134;DHT22;2585;48.696;10.066;2024-01-25T09:51:13;6.60;63.80
5134;DHT22;2585;48.696;10.066;2024-01-25T09:53:40;7.10;18.70
5134;DHT22;2585;48.696;10.066;2024-01-25T09:56:10;7.50;1.00
5134;DHT22;2585;48.696;10.066;2024-01-25T09:58:38;7.90;1.00
5134;DHT22;2585;48.696;10.066;2024-01-25T10:01:09;8.20;1.00
5134;DHT22;2585;48.696;10.066;2024-01-25T10:03:37;8.40;79.60
5134;DHT22;2585;48.696;10.066;2024-01-25T10:06:07;8.50;87.90
5134;DHT22;2585;48.696;10.066;2024-01-25T10:08:34;8.90;1.00
5134;DHT22;2585;48.696;10.066;2024-01-25T10:11:01;9.30;84.30
5134;DHT22;2585;48.696;10.066;2024-01-25T10:13:28;9.30;1.00
5134;DHT22;2585;48.696;10.066;2024-01-25T10:15:56;9.50;76.00
5134;DHT22;2585;48.696;10.066;2024-01-25T10:18:24;9.30;83.70
5134;DHT22;2585;48.696;10.066;2024-01-25T10:20:56;9.10;1.00
5134;DHT22;2585;48.696;10.066;2024-01-25T10:23:24;8.60;91.60
5134;DHT22;2585;48.696;10.066;2024-01-25T10:25:52;8.10;1.00
5134;DHT22;2585;48.696;10.066;2024-01-25T10:28:20;7.80;81.80
5134;DHT22;2585;48.696;10.066;2024-01-25T10:30:47;7.70;1.00
5134;DHT22;2585;48.696;10.066;2024-01-25T10:33:16;7.50;85.10
5134;DHT22;2585;48.696;10.066;2024-01-25T10:35:46;7.40;1.00
5134;DHT22;2585;48.696;10.066;2024-01-25T10:38:20;7.20;90.20
5134;DHT22;2585;48.696;10.066;2024-01-25T10:40:47;7.10;20.10
5134;DHT22;2585;48.696;10.066;2024-01-25T10:43:15;7.00;78.70
5134;DHT22;2585;48.696;10.066;2024-01-25T10:45:43;6.90;1.00
5134;DHT22;2585;48.696;10.066;2024-01-25T10:48:10;6.90;1.00
5134;DHT22;2585;48.696;10.066;2024-01-25T10:50:37;7.00;1.00
5134;DHT22;2585;48.696;10.066;2024-01-25T10:53:07;7.30;1.00
5134;DHT22;2585;48.696;10.066;2024-01-25T10:55:34;7.70;1.00
5134;DHT22;2585;48.696;10.066;2024-01-25T10:58:01;7.80;66.70
5134;DHT22;2585;48.696;10.066;2024-01-25T11:00:31;8.30;76.80
5134;DHT22;2585;48.696;10.066;2024-01-25T11:03:00;8.00;63.00
5134;DHT22;2585;48.696;10.066;2024-01-25T11:05:28;8.10;27.30
5134;DHT22;2585;48.696;10.066;2024-01-25T11:07:55;8.50;1.00
5134;DHT22;2585;48.696;10.066;2024-01-25T11:10:25;8.80;1.00
5134;DHT22;2585;48.696;10.066;2024-01-25T11:13:01;9.10;44.10
5134;DHT22;2585;48.696;10.066;2024-01-25T11:15:34;9.10;12.50
5134;DHT22;2585;48.696;10.066;2024-01-25T11:18:02;9.40;56.40
5134;DHT22;2585;48.696;10.066;2024-01-25T11:20:30;9.80;82.40
5134;DHT22;2585;48.696;10.066;2024-01-25T11:23:00;9.50;1.00
5134;DHT22;2585;48.696;10.066;2024-01-25T11:25:32;9.70;1.00
5134;DHT22;2585;48.696;10.066;2024-01-25T11:28:01;9.70;1.00
5134;DHT22;2585;48.696;10.066;2024-01-25T11:30:30;9.60;75.30
5134;DHT22;2585;48.696;10.066;2024-01-25T11:32:57;9.70;85.30
5134;DHT22;2585;48.696;10.066;2024-01-25T11:35:24;9.60;1.00
5134;DHT22;2585;48.696;10.066;2024-01-25T11:37:52;9.80;16.70
5134;DHT22;2585;48.696;10.066;2024-01-25T11:40:19;9.90;1.00
5134;DHT22;2585;48.696;10.066;2024-01-25T11:42:50;9.90;1.00
5134;DHT22;2585;48.696;10.066;2024-01-25T11:45:17;10.10;86.90
5134;DHT22;2585;48.696;10.066;2024-01-25T11:47:44;10.00;89.00
5134;DHT22;2585;48.696;10.066;2024-01-25T11:50:12;10.10;1.00
5134;DHT22;2585;48.696;10.066;2024-01-25T11:52:39;10.10;72.40
5134;DHT22;2585;48.696;10.066;2024-01-25T11:55:08;10.20;77.50
5134;DHT22;2585;48.696;10.066;2024-01-25T11:57:38;10.60;60.60
5134;DHT22;2585;48.696;10.066;2024-01-25T12:00:06;10.90;9.20
5134;DHT22;2585;48.696;10.066;2024-01-25T12:02:34;10.40;1.00
5134;DHT22;2585;48.696;10.066;2024-01-25T12:05:02;10.70;1.00
5134;DHT22;2585;48.696;10.066;2024-01-25T12:07:30;10.80;1.00
5134;DHT22;2585;48.696;10.066;2024-01-25T12:10:08;10.60;1.00
5134;DHT22;2585;48.696;10.066;2024-01-25T12:12:37;10.90;1.00
5134;DHT22;2585;48.696;10.066;2024-01-25T12:15:06;11.20;1.00
5134;DHT22;2585;48.696;10.066;2024-01-25T12:17:34;11.20;1.00
5134;DHT22;2585;48.696;10.066;2024-01-25T12:20:07;11.00;1.00
5134;DHT22;2585;48.696;10.066;2024-01-25T12:22:38;10.80;1.00
5134;DHT22;2585;48.696;10.066;2024-01-25T12:25:09;10.90;1.00
5134;DHT22;2585;48.696;10.066;2024-01-25T12:27:40;10.80;1.00
5134;DHT22;2585;48.696;10.066;2024-01-25T12:30:13;10.70;1.00
5134;DHT22;2585;48.696;10.066;2024-01-25T12:32:40;10.70;1.00
5134;DHT22;2585;48.696;10.066;2024-01-25T12:35:07;10.60;1.00
5134;DHT22;2585;48.696;10.066;2024-01-25T12:37:35;10.90;1.00
5134;DHT22;2585;48.696;10.066;2024-01-25T12:40:03;11.10;1.00
5134;DHT22;2585;48.696;10.066;2024-01-25T12:42:30;11.20;88.90
5134;DHT22;2585;48.696;10.066;2024-01-25T12:44:57;10.80;79.00
5134;DHT22;2585;48.696;10.066;2024-01-25T12:47:24;11.00;88.40
5134;DHT22;2585;48.696;10.066;2024-01-25T12:49:52;10.60;83.10
5134;DHT22;2585;48.696;10.066;2024-01-25T12:52:18;10.40;87.00
5134;DHT22;2585;48.696;10.066;2024-01-25T12:54:46;10.50;86.30
5134;DHT22;2585;48.696;10.066;2024-01-25T12:57:12;10.50;76.00
5134;DHT22;2585;48.696;10.066;2024-01-25T12:59:40;10.60;76.20
5134;DHT22;2585;48.696;10.066;2024-01-25T13:02:07;10.40;76.90
5134;DHT22;2585;48.696;10.066;2024-01-25T13:04:34;10.60;86.90
5134;DHT22;2585;48.696;10.066;2024-01-25T13:07:01;10.50;74.90
5134;DHT22;2585;48.696;10.066;2024-01-25T13:09:28;10.50;67.60
5134;DHT22;2585;48.696;10.066;2024-01-25T13:11:56;10.40;75.50
5134;DHT22;2585;48.696;10.066;2024-01-25T13:14:23;10.50;72.20
5134;DHT22;2585;48.696;10.066;2024-01-25T13:16:50;10.40;71.60
5134;DHT22;2585;48.696;10.066;2024-01-25T13:19:17;10.00;69.00
5134;DHT22;2585;48.696;10.066;2024-01-25T13:21:45;9.90;71.90
5134;DHT22;2585;48.696;10.066;2024-01-25T13:24:12;9.70;69.90
5134;DHT22;2585;48.696;10.066;2024-01-25T13:26:39;9.80;81.00
5134;DHT22;2585;48.696;10.066;2024-01-25T13:29:05;9.80;76.10
5134;DHT22;2585;48.696;10.066;2024-01-25T13:31:32;9.70;74.60
5134;DHT22;2585;48.696;10.066;2024-01-25T13:33:59;9.90;80.70
5134;DHT22;2585;48.696;10.066;2024-01-25T13:36:26;9.90;71.20
5134;DHT22;2585;48.696;10.066;2024-01-25T13:38:53;9.90;69.60
5134;DHT22;2585;48.696;10.066;2024-01-25T13:41:20;9.90;70.90
5134;DHT22;2585;48.696;10.066;2024-01-25T13:43:47;10.10;79.40
5134;DHT22;2585;48.696;10.066;2024-01-25T13:46:14;10.10;63.30
5134;DHT22;2585;48.696;10.066;2024-01-25T13:48:41;10.10;63.20
5134;DHT22;2585;48.696;10.066;2024-01-25T13:51:07;10.10;62.70
5134;DHT22;2585;48.696;10.066;2024-01-25T13:53:34;9.80;61.20
5134;DHT22;2585;48.696;10.066;2024-01-25T13:56:03;9.80;68.10
5134;DHT22;2585;48.696;10.066;2024-01-25T13:58:30;10.10;62.00
5134;DHT22;2585;48.696;10.066;2024-01-25T14:00:56;10.30;61.00
5134;DHT22;2585;48.696;10.066;2024-01-25T14:03:23;10.10;24.70
5134;DHT22;2585;48.696;10.066;2024-01-25T14:05:50;10.10;45.30
5134;DHT22;2585;48.696;10.066;2024-01-25T14:08:17;10.00;37.70
5134;DHT22;2585;48.696;10.066;2024-01-25T14:10:44;9.90;41.60
5134;DHT22;2585;48.696;10.066;2024-01-25T14:13:11;10.00;61.30
5134;DHT22;2585;48.696;10.066;2024-01-25T14:15:38;10.00;37.20
5134;DHT22;2585;48.696;10.066;2024-01-25T14:18:06;9.80;53.30
5134;DHT22;2585;48.696;10.066;2024-01-25T14:20:33;9.80;62.70
5134;DHT22;2585;48.696;10.066;2024-01-25T14:23:01;9.60;55.10
5134;DHT22;2585;48.696;10.066;2024-01-25T14:25:28;9.50;49.50
5134;DHT22;2585;48.696;10.066;2024-01-25T14:27:55;9.50;66.40
5134;DHT22;2585;48.696;10.066;2024-01-25T14:30:24;9.40;71.10
5134;DHT22;2585;48.696;10.066;2024-01-25T14:32:51;9.40;77.70
5134;DHT22;2585;48.696;10.066;2024-01-25T14:35:18;9.50;83.70
5134;DHT22;2585;48.696;10.066;2024-01-25T14:37:45;9.50;84.30
5134;DHT22;2585;48.696;10.066;2024-01-25T14:40:12;9.50;84.40
5134;DHT22;2585;48.696;10.066;2024-01-25T14:42:59;9.50;85.10
5134;DHT22;2585;48.696;10.066;2024-01-25T14:45:27;9.40;86.40
5134;DHT22;2585;48.696;10.066;2024-01-25T14:47:56;9.40;90.00
5134;DHT22;2585;48.696;10.066;2024-01-25T14:50:23;9.40;90.20
5134;DHT22;2585;48.696;10.066;2024-01-25T14:52:50;9.50;88.90
5134;DHT22;2585;48.696;10.066;2024-01-25T14:55:17;9.40;83.10
5134;DHT22;2585;48.696;10.066;2024-01-25T14:57:44;9.30;88.30
5134;DHT22;2585;48.696;10.066;2024-01-25T15:00:12;9.20;86.30
5134;DHT22;2585;48.696;10.066;2024-01-25T15:02:46;9.20;1.00
5134;DHT22;2585;48.696;10.066;2024-01-25T15:05:13;9.30;1.00
5134;DHT22;2585;48.696;10.066;2024-01-25T15:07:40;9.10;1.00
5134;DHT22;2585;48.696;10.066;2024-01-25T15:10:08;9.10;1.00
5134;DHT22;2585;48.696;10.066;2024-01-25T15:12:35;9.00;1.00
5134;DHT22;2585;48.696;10.066;2024-01-25T15:15:02;8.90;1.00
5134;DHT22;2585;48.696;10.066;2024-01-25T15:17:29;8.80;1.00
5134;DHT22;2585;48.696;10.066;2024-01-25T15:19:56;8.80;1.00
5134;DHT22;2585;48.696;10.066;2024-01-25T15:22:24;8.80;1.00
5134;DHT22;2585;48.696;10.066;2024-01-25T15:24:53;8.80;7.70
5134;DHT22;2585;48.696;10.066;2024-01-25T15:27:20;8.70;67.70
5134;DHT22;2585;48.696;10.066;2024-01-25T15:29:47;8.60;82.60
5134;DHT22;2585;48.696;10.066;2024-01-25T15:32:14;8.60;91.30
5134;DHT22;2585;48.696;10.066;2024-01-25T15:34:41;8.50;1.00
5134;DHT22;2585;48.696;10.066;2024-01-25T15:37:08;8.40;1.00
5134;DHT22;2585;48.696;10.066;2024-01-25T15:39:34;8.40;1.00
5134;DHT22;2585;48.696;10.066;2024-01-25T15:42:01;8.30;5.60
5134;DHT22;2585;48.696;10.066;2024-01-25T15:44:28;8.30;76.80
5134;DHT22;2585;48.696;10.066;2024-01-25T15:46:55;8.20;1.00
5134;DHT22;2585;48.696;10.066;2024-01-25T15:49:22;8.20;1.00
5134;DHT22;2585;48.696;10.066;2024-01-25T15:51:49;8.10;1.00
5134;DHT22;2585;48.696;10.066;2024-01-25T15:54:17;8.00;68.90
5134;DHT22;2585;48.696;10.066;2024-01-25T15:56:44;7.90;87.50
5134;DHT22;2585;48.696;10.066;2024-01-25T15:59:11;7.80;1.00
5134;DHT22;2585;48.696;10.066;2024-01-25T16:01:38;7.80;1.00
5134;DHT22;2585;48.696;10.066;2024-01-25T16:04:05;7.70;1.00
5134;DHT22;2585;48.696;10.066;2024-01-25T16:06:32;7.50;1.00
5134;DHT22;2585;48.696;10.066;2024-01-25T16:09:01;7.50;1.00
5134;DHT22;2585;48.696;10.066;2024-01-25T16:11:28;7.40;1.00